sensor_id;sensor_type;location;lat;lon;timestamp;temperature;humidity
7155;DHT22;3619;53.784;10.440;2023-07-08T00:01:11;15.30;99.90
7155;DHT22;3619;53.784;10.440;2023-07-08T00:03:39;15.20;99.90
7155;DHT22;3619;53.784;10.440;2023-07-08T00:06:10;15.20;99.90
7155;DHT22;3619;53.784;10.440;2023-07-08T00:08:39;15.30;99.90
7155;DHT22;3619;53.784;10.440;2023-07-08T00:11:09;15.40;99.90
7155;DHT22;3619;53.784;10.440;2023-07-08T00:13:36;15.40;99.90
7155;DHT22;3619;53.784;10.440;2023-07-08T00:16:03;15.40;99.90
7155;DHT22;3619;53.784;10.440;2023-07-08T00:18:30;15.50;99.90
7155;DHT22;3619;53.784;10.440;2023-07-08T00:20:57;15.40;99.90
7155;DHT22;3619;53.784;10.440;2023-07-08T00:23:24;15.30;99.90
7155;DHT22;3619;53.784;10.440;2023-07-08T00:25:52;15.30;99.90
7155;DHT22;3619;53.784;10.440;2023-07-08T00:28:23;15.30;99.90
7155;DHT22;3619;53.784;10.440;2023-07-08T00:30:49;15.30;99.90
7155;DHT22;3619;53.784;10.440;2023-07-08T00:33:18;15.30;99.90
7155;DHT22;3619;53.784;10.440;2023-07-08T00:35:45;15.20;99.90
7155;DHT22;3619;53.784;10.440;2023-07-08T00:38:14;15.10;99.90
7155;DHT22;3619;53.784;10.440;2023-07-08T00:40:50;15.10;99.90
7155;DHT22;3619;53.784;10.440;2023-07-08T00:43:19;15.20;99.90
7155;DHT22;3619;53.784;10.440;2023-07-08T00:45:50;15.20;99.90
7155;DHT22;3619;53.784;10.440;2023-07-08T00:48:23;15.20;99.90
7155;DHT22;3619;53.784;10.440;2023-07-08T00:50:50;15.20;99.90
7155;DHT22;3619;53.784;10.440;2023-07-08T00:53:26;15.20;99.90
7155;DHT22;3619;53.784;10.440;2023-07-08T00:55:55;15.20;99.90
7155;DHT22;3619;53.784;10.440;2023-07-08T00:58:31;15.10;99.90
7155;DHT22;3619;53.784;10.440;2023-07-08T01:01:02;15.00;99.90
7155;DHT22;3619;53.784;10.440;2023-07-08T01:03:29;15.00;99.90
7155;DHT22;3619;53.784;10.440;2023-07-08T01:05:57;15.00;99.90
7155;DHT22;3619;53.784;10.440;2023-07-08T01:08:27;15.00;99.90
7155;DHT22;3619;53.784;10.440;2023-07-08T01:11:00;15.00;99.90
7155;DHT22;3619;53.784;10.440;2023-07-08T01:13:32;15.00;99.90
7155;DHT22;3619;53.784;10.440;2023-07-08T01:16:01;15.00;99.90
7155;DHT22;3619;53.784;10.440;2023-07-08T01:18:29;14.80;99.90
7155;DHT22;3619;53.784;10.440;2023-07-08T01:21:02;14.80;99.90
7155;DHT22;3619;53.784;10.440;2023-07-08T01:23:34;14.80;99.90
7155;DHT22;3619;53.784;10.440;2023-07-08T01:26:01;14.80;99.90
7155;DHT22;3619;53.784;10.440;2023-07-08T01:28:28;14.90;99.90
7155;DHT22;3619;53.784;10.440;2023-07-08T01:30:57;14.90;99.90
7155;DHT22;3619;53.784;10.440;2023-07-08T01:33:24;14.90;99.90
7155;DHT22;3619;53.784;10.440;2023-07-08T01:35:52;14.90;99.90
7155;DHT22;3619;53.784;10.440;2023-07-08T01:38:24;14.80;99.90
7155;DHT22;3619;53.784;10.440;2023-07-08T01:40:54;14.80;99.90
7155;DHT22;3619;53.784;10.440;2023-07-08T01:43:21;14.80;99.90
7155;DHT22;3619;53.784;10.440;2023-07-08T01:45:49;14.80;99.90
7155;DHT22;3619;53.784;10.440;2023-07-08T01:48:20;14.70;99.90
7155;DHT22;3619;53.784;10.440;2023-07-08T01:50:51;14.60;99.90
7155;DHT22;3619;53.784;10.440;2023-07-08T01:53:28;14.50;99.90
7155;DHT22;3619;53.784;10.440;2023-07-08T01:55:57;14.60;99.90
7155;DHT22;3619;53.784;10.440;2023-07-08T01:58:24;14.50;99.90
7155;DHT22;3619;53.784;10.440;2023-07-08T02:00:51;14.50;99.90
7155;DHT22;3619;53.784;10.440;2023-07-08T02:03:19;14.50;99.90
7155;DHT22;3619;53.784;10.440;2023-07-08T02:05:45;14.50;99.90
7155;DHT22;3619;53.784;10.440;2023-07-08T02:08:12;14.50;99.90
7155;DHT22;3619;53.784;10.440;2023-07-08T02:10:40;14.40;99.90
7155;DHT22;3619;53.784;10.440;2023-07-08T02:13:09;14.50;99.90
7155;DHT22;3619;53.784;10.440;2023-07-08T02:15:36;14.50;99.90
7155;DHT22;3619;53.784;10.440;2023-07-08T02:18:03;14.50;99.90
7155;DHT22;3619;53.784;10.440;2023-07-08T02:20:30;14.50;99.90
7155;DHT22;3619;53.784;10.440;2023-07-08T02:22:56;14.50;99.90
7155;DHT22;3619;53.784;10.440;2023-07-08T02:25:23;14.40;99.90
7155;DHT22;3619;53.784;10.440;2023-07-08T02:27:51;14.40;99.90
7155;DHT22;3619;53.784;10.440;2023-07-08T02:30:21;14.40;99.90
7155;DHT22;3619;53.784;10.440;2023-07-08T02:32:48;14.40;99.90
7155;DHT22;3619;53.784;10.440;2023-07-08T02:35:22;14.40;99.90
7155;DHT22;3619;53.784;10.440;2023-07-08T02:37:49;14.40;99.90
7155;DHT22;3619;53.784;10.440;2023-07-08T02:40:16;14.40;99.90
7155;DHT22;3619;53.784;10.440;2023-07-08T02:42:43;14.40;99.90
7155;DHT22;3619;53.784;10.440;2023-07-08T02:45:11;14.40;99.90
7155;DHT22;3619;53.784;10.440;2023-07-08T02:47:40;14.40;99.90
7155;DHT22;3619;53.784;10.440;2023-07-08T02:50:07;14.40;99.90
7155;DHT22;3619;53.784;10.440;2023-07-08T02:52:34;14.40;99.90
7155;DHT22;3619;53.784;10.440;2023-07-08T02:55:01;14.30;99.90
7155;DHT22;3619;53.784;10.440;2023-07-08T02:57:28;14.20;99.90
7155;DHT22;3619;53.784;10.440;2023-07-08T02:59:56;14.20;99.90
7155;DHT22;3619;53.784;10.440;2023-07-08T03:02:24;14.30;99.90
7155;DHT22;3619;53.784;10.440;2023-07-08T03:04:52;14.30;99.90
7155;DHT22;3619;53.784;10.440;2023-07-08T03:07:19;14.30;99.90
7155;DHT22;3619;53.784;10.440;2023-07-08T03:09:46;14.30;99.90
7155;DHT22;3619;53.784;10.440;2023-07-08T03:12:13;14.30;99.90
7155;DHT22;3619;53.784;10.440;2023-07-08T03:14:40;14.30;99.90
7155;DHT22;3619;53.784;10.440;2023-07-08T03:17:06;14.30;99.90
7155;DHT22;3619;53.784;10.440;2023-07-08T03:19:33;14.30;99.90
7155;DHT22;3619;53.784;10.440;2023-07-08T03:22:02;14.30;99.90
7155;DHT22;3619;53.784;10.440;2023-07-08T03:24:31;14.30;99.90
7155;DHT22;3619;53.784;10.440;2023-07-08T03:26:57;14.30;99.90
7155;DHT22;3619;53.784;10.440;2023-07-08T03:29:26;14.20;99.90
7155;DHT22;3619;53.784;10.440;2023-07-08T03:31:53;14.20;99.90
7155;DHT22;3619;53.784;10.440;2023-07-08T03:34:19;14.30;99.90
7155;DHT22;3619;53.784;10.440;2023-07-08T03:36:48;14.30;99.90
7155;DHT22;3619;53.784;10.440;2023-07-08T03:39:17;14.20;99.90
7155;DHT22;3619;53.784;10.440;2023-07-08T03:41:44;14.20;99.90
7155;DHT22;3619;53.784;10.440;2023-07-08T03:44:11;14.20;99.90
7155;DHT22;3619;53.784;10.440;2023-07-08T03:46:38;14.30;99.90
7155;DHT22;3619;53.784;10.440;2023-07-08T03:49:05;14.40;99.90
7155;DHT22;3619;53.784;10.440;2023-07-08T03:51:36;14.30;99.90
7155;DHT22;3619;53.784;10.440;2023-07-08T03:54:04;14.30;99.90
7155;DHT22;3619;53.784;10.440;2023-07-08T03:56:32;14.40;99.90
7155;DHT22;3619;53.784;10.440;2023-07-08T03:58:59;14.40;99.90
7155;DHT22;3619;53.784;10.440;2023-07-08T04:01:27;14.40;99.90
7155;DHT22;3619;53.784;10.440;2023-07-08T04:03:56;14.40;99.90
7155;DHT22;3619;53.784;10.440;2023-07-08T04:06:24;14.50;99.90
7155;DHT22;3619;53.784;10.440;2023-07-08T04:08:52;14.50;99.90
7155;DHT22;3619;53.784;10.440;2023-07-08T04:11:20;14.50;99.90
7155;DHT22;3619;53.784;10.440;2023-07-08T04:13:48;14.60;99.90
7155;DHT22;3619;53.784;10.440;2023-07-08T04:16:18;14.60;99.90
7155;DHT22;3619;53.784;10.440;2023-07-08T04:18:45;14.60;99.90
7155;DHT22;3619;53.784;10.440;2023-07-08T04:21:12;14.70;99.90
7155;DHT22;3619;53.784;10.440;2023-07-08T04:23:39;14.70;99.90
7155;DHT22;3619;53.784;10.440;2023-07-08T04:26:08;14.70;99.90
7155;DHT22;3619;53.784;10.440;2023-07-08T04:28:35;14.80;99.90
7155;DHT22;3619;53.784;10.440;2023-07-08T04:31:03;14.90;99.90
7155;DHT22;3619;53.784;10.440;2023-07-08T04:33:30;14.90;99.90
7155;DHT22;3619;53.784;10.440;2023-07-08T04:35:57;14.90;99.90
7155;DHT22;3619;53.784;10.440;2023-07-08T04:38:25;15.00;99.90
7155;DHT22;3619;53.784;10.440;2023-07-08T04:40:53;15.00;99.90
7155;DHT22;3619;53.784;10.440;2023-07-08T04:43:21;15.10;99.90
7155;DHT22;3619;53.784;10.440;2023-07-08T04:45:50;15.20;99.90
7155;DHT22;3619;53.784;10.440;2023-07-08T04:48:20;15.30;99.90
7155;DHT22;3619;53.784;10.440;2023-07-08T04:50:49;15.40;99.90
7155;DHT22;3619;53.784;10.440;2023-07-08T04:53:16;15.50;99.90
7155;DHT22;3619;53.784;10.440;2023-07-08T04:55:45;15.50;99.90
7155;DHT22;3619;53.784;10.440;2023-07-08T04:58:13;15.60;99.90
7155;DHT22;3619;53.784;10.440;2023-07-08T05:00:40;15.70;99.90
7155;DHT22;3619;53.784;10.440;2023-07-08T05:03:06;15.80;99.90
7155;DHT22;3619;53.784;10.440;2023-07-08T05:05:34;15.90;99.90
7155;DHT22;3619;53.784;10.440;2023-07-08T05:08:01;16.00;99.90
7155;DHT22;3619;53.784;10.440;2023-07-08T05:10:28;16.10;99.90
7155;DHT22;3619;53.784;10.440;2023-07-08T05:12:55;16.30;99.90
7155;DHT22;3619;53.784;10.440;2023-07-08T05:15:22;16.40;99.90
7155;DHT22;3619;53.784;10.440;2023-07-08T05:17:50;16.60;99.90
7155;DHT22;3619;53.784;10.440;2023-07-08T05:20:18;16.80;99.90
7155;DHT22;3619;53.784;10.440;2023-07-08T05:22:46;16.90;99.90
7155;DHT22;3619;53.784;10.440;2023-07-08T05:25:14;17.00;99.90
7155;DHT22;3619;53.784;10.440;2023-07-08T05:27:41;17.20;99.90
7155;DHT22;3619;53.784;10.440;2023-07-08T05:30:12;17.30;99.90
7155;DHT22;3619;53.784;10.440;2023-07-08T05:32:40;17.50;99.90
7155;DHT22;3619;53.784;10.440;2023-07-08T05:35:07;17.60;99.90
7155;DHT22;3619;53.784;10.440;2023-07-08T05:37:34;17.70;99.90
7155;DHT22;3619;53.784;10.440;2023-07-08T05:40:02;17.90;99.90
7155;DHT22;3619;53.784;10.440;2023-07-08T05:42:39;18.00;99.90
7155;DHT22;3619;53.784;10.440;2023-07-08T05:45:07;18.10;99.90
7155;DHT22;3619;53.784;10.440;2023-07-08T05:47:36;18.20;99.90
7155;DHT22;3619;53.784;10.440;2023-07-08T05:50:03;18.40;99.90
7155;DHT22;3619;53.784;10.440;2023-07-08T05:52:35;18.60;99.90
7155;DHT22;3619;53.784;10.440;2023-07-08T05:55:04;18.80;99.90
7155;DHT22;3619;53.784;10.440;2023-07-08T05:57:33;19.00;99.90
7155;DHT22;3619;53.784;10.440;2023-07-08T06:00:00;19.10;99.90
7155;DHT22;3619;53.784;10.440;2023-07-08T06:02:27;19.10;99.90
7155;DHT22;3619;53.784;10.440;2023-07-08T06:04:56;19.10;99.90
7155;DHT22;3619;53.784;10.440;2023-07-08T06:07:25;19.10;99.90
7155;DHT22;3619;53.784;10.440;2023-07-08T06:09:52;19.10;99.90
7155;DHT22;3619;53.784;10.440;2023-07-08T06:12:22;19.30;99.90
7155;DHT22;3619;53.784;10.440;2023-07-08T06:14:49;19.50;99.90
7155;DHT22;3619;53.784;10.440;2023-07-08T06:17:17;19.60;99.90
7155;DHT22;3619;53.784;10.440;2023-07-08T06:19:44;19.80;99.90
7155;DHT22;3619;53.784;10.440;2023-07-08T06:22:11;20.00;99.90
7155;DHT22;3619;53.784;10.440;2023-07-08T06:24:38;20.10;99.90
7155;DHT22;3619;53.784;10.440;2023-07-08T06:27:05;20.10;99.90
7155;DHT22;3619;53.784;10.440;2023-07-08T06:29:34;20.30;99.90
7155;DHT22;3619;53.784;10.440;2023-07-08T06:32:01;20.50;99.90
7155;DHT22;3619;53.784;10.440;2023-07-08T06:34:28;20.50;99.90
7155;DHT22;3619;53.784;10.440;2023-07-08T06:36:54;20.60;99.90
7155;DHT22;3619;53.784;10.440;2023-07-08T06:39:21;20.80;99.90
7155;DHT22;3619;53.784;10.440;2023-07-08T06:41:48;21.00;99.90
7155;DHT22;3619;53.784;10.440;2023-07-08T06:44:15;21.20;99.90
7155;DHT22;3619;53.784;10.440;2023-07-08T06:46:43;21.20;99.90
7155;DHT22;3619;53.784;10.440;2023-07-08T06:49:11;21.40;99.90
7155;DHT22;3619;53.784;10.440;2023-07-08T06:51:38;21.50;99.90
7155;DHT22;3619;53.784;10.440;2023-07-08T06:54:05;21.50;99.90
7155;DHT22;3619;53.784;10.440;2023-07-08T06:56:37;21.60;99.90
7155;DHT22;3619;53.784;10.440;2023-07-08T06:59:04;21.80;99.90
7155;DHT22;3619;53.784;10.440;2023-07-08T07:01:31;21.90;99.90
7155;DHT22;3619;53.784;10.440;2023-07-08T07:04:00;22.00;99.90
7155;DHT22;3619;53.784;10.440;2023-07-08T07:06:28;22.20;99.90
7155;DHT22;3619;53.784;10.440;2023-07-08T07:08:55;22.40;99.90
7155;DHT22;3619;53.784;10.440;2023-07-08T07:11:22;22.50;99.90
7155;DHT22;3619;53.784;10.440;2023-07-08T07:13:49;22.70;99.90
7155;DHT22;3619;53.784;10.440;2023-07-08T07:16:18;22.60;99.90
7155;DHT22;3619;53.784;10.440;2023-07-08T07:18:45;22.80;99.90
7155;DHT22;3619;53.784;10.440;2023-07-08T07:21:13;22.90;99.90
7155;DHT22;3619;53.784;10.440;2023-07-08T07:23:40;23.00;99.90
7155;DHT22;3619;53.784;10.440;2023-07-08T07:26:07;23.20;99.90
7155;DHT22;3619;53.784;10.440;2023-07-08T07:28:37;23.20;99.90
7155;DHT22;3619;53.784;10.440;2023-07-08T07:31:04;23.30;99.90
7155;DHT22;3619;53.784;10.440;2023-07-08T07:33:32;23.30;99.90
7155;DHT22;3619;53.784;10.440;2023-07-08T07:35:59;23.50;99.90
7155;DHT22;3619;53.784;10.440;2023-07-08T07:38:27;23.60;99.90
7155;DHT22;3619;53.784;10.440;2023-07-08T07:40:54;23.70;99.90
7155;DHT22;3619;53.784;10.440;2023-07-08T07:43:21;23.80;99.90
7155;DHT22;3619;53.784;10.440;2023-07-08T07:45:50;23.80;99.90
7155;DHT22;3619;53.784;10.440;2023-07-08T07:48:17;24.10;99.90
7155;DHT22;3619;53.784;10.440;2023-07-08T07:50:45;24.30;99.90
7155;DHT22;3619;53.784;10.440;2023-07-08T07:53:12;24.40;99.90
7155;DHT22;3619;53.784;10.440;2023-07-08T07:55:41;24.30;99.90
7155;DHT22;3619;53.784;10.440;2023-07-08T07:58:07;24.60;99.90
7155;DHT22;3619;53.784;10.440;2023-07-08T08:00:37;24.70;99.90
7155;DHT22;3619;53.784;10.440;2023-07-08T08:03:07;24.60;99.90
7155;DHT22;3619;53.784;10.440;2023-07-08T08:05:33;24.60;99.90
7155;DHT22;3619;53.784;10.440;2023-07-08T08:08:00;24.70;99.90
7155;DHT22;3619;53.784;10.440;2023-07-08T08:10:36;24.50;98.50
7155;DHT22;3619;53.784;10.440;2023-07-08T08:13:19;24.60;99.90
7155;DHT22;3619;53.784;10.440;2023-07-08T08:15:56;24.80;99.90
7155;DHT22;3619;53.784;10.440;2023-07-08T08:18:23;24.90;99.90
7155;DHT22;3619;53.784;10.440;2023-07-08T08:20:50;24.80;99.90
7155;DHT22;3619;53.784;10.440;2023-07-08T08:23:19;24.90;99.90
7155;DHT22;3619;53.784;10.440;2023-07-08T08:25:50;25.20;81.40
7155;DHT22;3619;53.784;10.440;2023-07-08T08:28:19;25.20;55.50
7155;DHT22;3619;53.784;10.440;2023-07-08T08:30:58;25.30;51.50
7155;DHT22;3619;53.784;10.440;2023-07-08T08:33:24;25.10;38.70
7155;DHT22;3619;53.784;10.440;2023-07-08T08:35:51;25.40;69.80
7155;DHT22;3619;53.784;10.440;2023-07-08T08:38:18;25.70;97.80
7155;DHT22;3619;53.784;10.440;2023-07-08T08:40:45;25.70;90.80
7155;DHT22;3619;53.784;10.440;2023-07-08T08:43:15;25.80;38.00
7155;DHT22;3619;53.784;10.440;2023-07-08T08:45:47;25.80;18.20
7155;DHT22;3619;53.784;10.440;2023-07-08T08:48:18;25.70;1.00
7155;DHT22;3619;53.784;10.440;2023-07-08T08:50:50;25.60;25.20
7155;DHT22;3619;53.784;10.440;2023-07-08T08:53:18;25.60;56.80
7155;DHT22;3619;53.784;10.440;2023-07-08T08:55:52;25.50;15.50
7155;DHT22;3619;53.784;10.440;2023-07-08T08:58:30;25.70;32.70
7155;DHT22;3619;53.784;10.440;2023-07-08T09:01:04;25.90;4.00
7155;DHT22;3619;53.784;10.440;2023-07-08T09:03:37;26.10;1.00
7155;DHT22;3619;53.784;10.440;2023-07-08T09:06:16;26.00;1.00
7155;DHT22;3619;53.784;10.440;2023-07-08T09:08:44;26.10;1.00
7155;DHT22;3619;53.784;10.440;2023-07-08T09:11:36;26.10;35.00
7155;DHT22;3619;53.784;10.440;2023-07-08T09:14:13;26.00;29.40
7155;DHT22;3619;53.784;10.440;2023-07-08T09:16:47;26.10;18.00
7155;DHT22;3619;53.784;10.440;2023-07-08T09:19:24;26.40;1.00
7155;DHT22;3619;53.784;10.440;2023-07-08T09:21:56;26.50;1.00
7155;DHT22;3619;53.784;10.440;2023-07-08T09:24:29;26.00;1.00
7155;DHT22;3619;53.784;10.440;2023-07-08T09:26:58;26.10;1.00
7155;DHT22;3619;53.784;10.440;2023-07-08T09:29:26;26.10;1.00
7155;DHT22;3619;53.784;10.440;2023-07-08T09:31:55;26.10;6.50
7155;DHT22;3619;53.784;10.440;2023-07-08T09:34:23;26.50;1.00
7155;DHT22;3619;53.784;10.440;2023-07-08T09:37:02;26.60;1.00
7155;DHT22;3619;53.784;10.440;2023-07-08T09:39:29;26.70;1.00
7155;DHT22;3619;53.784;10.440;2023-07-08T09:41:56;26.70;1.00
7155;DHT22;3619;53.784;10.440;2023-07-08T09:44:24;27.10;1.00
7155;DHT22;3619;53.784;10.440;2023-07-08T09:46:56;27.10;1.00
7155;DHT22;3619;53.784;10.440;2023-07-08T09:49:27;27.00;1.00
7155;DHT22;3619;53.784;10.440;2023-07-08T09:51:57;26.90;1.00
7155;DHT22;3619;53.784;10.440;2023-07-08T09:54:25;26.70;1.00
7155;DHT22;3619;53.784;10.440;2023-07-08T09:57:02;26.80;1.00
7155;DHT22;3619;53.784;10.440;2023-07-08T09:59:36;27.20;1.00
7155;DHT22;3619;53.784;10.440;2023-07-08T10:02:29;27.50;1.00
7155;DHT22;3619;53.784;10.440;2023-07-08T10:04:59;27.50;99.90
7155;DHT22;3619;53.784;10.440;2023-07-08T10:07:29;27.40;1.00
7155;DHT22;3619;53.784;10.440;2023-07-08T10:09:58;27.40;1.00
7155;DHT22;3619;53.784;10.440;2023-07-08T10:12:25;27.60;1.00
7155;DHT22;3619;53.784;10.440;2023-07-08T10:14:58;27.60;99.90
7155;DHT22;3619;53.784;10.440;2023-07-08T10:17:27;27.50;1.00
7155;DHT22;3619;53.784;10.440;2023-07-08T10:19:56;27.50;1.00
7155;DHT22;3619;53.784;10.440;2023-07-08T10:22:33;27.50;1.00
7155;DHT22;3619;53.784;10.440;2023-07-08T10:25:09;27.70;1.00
7155;DHT22;3619;53.784;10.440;2023-07-08T10:27:43;27.80;1.00
7155;DHT22;3619;53.784;10.440;2023-07-08T10:30:19;27.60;1.00
7155;DHT22;3619;53.784;10.440;2023-07-08T10:32:59;27.60;99.90
7155;DHT22;3619;53.784;10.440;2023-07-08T10:35:35;27.60;1.00
7155;DHT22;3619;53.784;10.440;2023-07-08T10:38:18;27.60;99.90
7155;DHT22;3619;53.784;10.440;2023-07-08T10:40:49;27.80;1.00
7155;DHT22;3619;53.784;10.440;2023-07-08T10:43:42;27.80;1.00
7155;DHT22;3619;53.784;10.440;2023-07-08T10:46:21;27.70;99.90
7155;DHT22;3619;53.784;10.440;2023-07-08T10:51:46;27.90;99.90
7155;DHT22;3619;53.784;10.440;2023-07-08T10:54:31;28.00;1.00
7155;DHT22;3619;53.784;10.440;2023-07-08T10:57:09;28.00;1.00
7155;DHT22;3619;53.784;10.440;2023-07-08T10:59:47;28.20;1.00
7155;DHT22;3619;53.784;10.440;2023-07-08T11:02:40;28.20;1.00
7155;DHT22;3619;53.784;10.440;2023-07-08T11:05:26;28.10;1.00
7155;DHT22;3619;53.784;10.440;2023-07-08T11:08:01;27.80;1.00
7155;DHT22;3619;53.784;10.440;2023-07-08T11:10:34;27.70;1.00
7155;DHT22;3619;53.784;10.440;2023-07-08T11:13:06;27.90;1.00
7155;DHT22;3619;53.784;10.440;2023-07-08T11:15:41;27.80;1.00
7155;DHT22;3619;53.784;10.440;2023-07-08T11:18:13;27.90;1.00
7155;DHT22;3619;53.784;10.440;2023-07-08T11:20:45;28.20;1.00
7155;DHT22;3619;53.784;10.440;2023-07-08T11:23:23;28.20;1.00
7155;DHT22;3619;53.784;10.440;2023-07-08T11:25:58;28.30;1.00
7155;DHT22;3619;53.784;10.440;2023-07-08T11:28:27;28.40;1.00
7155;DHT22;3619;53.784;10.440;2023-07-08T11:30:58;28.10;1.00
7155;DHT22;3619;53.784;10.440;2023-07-08T11:33:27;27.60;32.20
7155;DHT22;3619;53.784;10.440;2023-07-08T11:35:57;27.30;48.60
7155;DHT22;3619;53.784;10.440;2023-07-08T11:38:25;27.10;62.60
7155;DHT22;3619;53.784;10.440;2023-07-08T11:40:55;27.00;83.90
7155;DHT22;3619;53.784;10.440;2023-07-08T11:43:25;26.80;83.90
7155;DHT22;3619;53.784;10.440;2023-07-08T11:45:56;26.60;85.90
7155;DHT22;3619;53.784;10.440;2023-07-08T11:48:26;26.60;97.50
7155;DHT22;3619;53.784;10.440;2023-07-08T11:50:55;26.70;99.30
7155;DHT22;3619;53.784;10.440;2023-07-08T11:53:35;26.70;94.70
7155;DHT22;3619;53.784;10.440;2023-07-08T11:56:05;26.50;95.80
7155;DHT22;3619;53.784;10.440;2023-07-08T11:59:03;26.60;99.90
7155;DHT22;3619;53.784;10.440;2023-07-08T12:01:38;27.00;85.20
7155;DHT22;3619;53.784;10.440;2023-07-08T12:07:09;27.30;39.20
7155;DHT22;3619;53.784;10.440;2023-07-08T12:09:38;27.30;31.00
7155;DHT22;3619;53.784;10.440;2023-07-08T12:12:16;27.10;50.60
7155;DHT22;3619;53.784;10.440;2023-07-08T12:14:44;27.10;65.10
7155;DHT22;3619;53.784;10.440;2023-07-08T12:17:12;26.90;65.50
7155;DHT22;3619;53.784;10.440;2023-07-08T12:19:41;26.80;90.60
7155;DHT22;3619;53.784;10.440;2023-07-08T12:22:10;26.90;97.40
7155;DHT22;3619;53.784;10.440;2023-07-08T12:24:38;26.90;95.50
7155;DHT22;3619;53.784;10.440;2023-07-08T12:27:05;26.80;96.50
7155;DHT22;3619;53.784;10.440;2023-07-08T12:29:32;27.10;94.30
7155;DHT22;3619;53.784;10.440;2023-07-08T12:31:59;26.90;93.80
7155;DHT22;3619;53.784;10.440;2023-07-08T12:34:27;26.90;98.20
7155;DHT22;3619;53.784;10.440;2023-07-08T12:36:53;26.90;93.80
7155;DHT22;3619;53.784;10.440;2023-07-08T12:39:24;26.70;92.20
7155;DHT22;3619;53.784;10.440;2023-07-08T12:41:51;26.70;99.50
7155;DHT22;3619;53.784;10.440;2023-07-08T12:44:19;26.80;99.90
7155;DHT22;3619;53.784;10.440;2023-07-08T12:46:47;26.90;97.10
7155;DHT22;3619;53.784;10.440;2023-07-08T12:49:15;26.70;96.30
7155;DHT22;3619;53.784;10.440;2023-07-08T12:51:44;26.70;98.70
7155;DHT22;3619;53.784;10.440;2023-07-08T12:54:11;26.70;99.90
7155;DHT22;3619;53.784;10.440;2023-07-08T12:56:44;26.70;98.30
7155;DHT22;3619;53.784;10.440;2023-07-08T12:59:14;26.60;97.70
7155;DHT22;3619;53.784;10.440;2023-07-08T13:01:45;26.60;96.10
7155;DHT22;3619;53.784;10.440;2023-07-08T13:04:13;26.70;99.90
7155;DHT22;3619;53.784;10.440;2023-07-08T13:06:40;26.80;99.30
7155;DHT22;3619;53.784;10.440;2023-07-08T13:09:29;27.20;99.90
7155;DHT22;3619;53.784;10.440;2023-07-08T13:12:03;27.50;83.80
7155;DHT22;3619;53.784;10.440;2023-07-08T13:14:30;27.60;63.90
7155;DHT22;3619;53.784;10.440;2023-07-08T13:16:57;27.50;78.80
7155;DHT22;3619;53.784;10.440;2023-07-08T13:19:24;27.50;52.20
7155;DHT22;3619;53.784;10.440;2023-07-08T13:21:51;27.50;51.40
7155;DHT22;3619;53.784;10.440;2023-07-08T13:24:18;27.40;29.50
7155;DHT22;3619;53.784;10.440;2023-07-08T13:26:49;27.60;22.90
7155;DHT22;3619;53.784;10.440;2023-07-08T13:29:19;27.60;1.00
7155;DHT22;3619;53.784;10.440;2023-07-08T13:31:48;27.70;22.80
7155;DHT22;3619;53.784;10.440;2023-07-08T13:34:17;28.00;1.00
7155;DHT22;3619;53.784;10.440;2023-07-08T13:36:45;28.10;1.00
7155;DHT22;3619;53.784;10.440;2023-07-08T13:39:17;27.90;1.00
7155;DHT22;3619;53.784;10.440;2023-07-08T13:41:46;27.90;1.00
7155;DHT22;3619;53.784;10.440;2023-07-08T13:44:13;28.00;1.00
7155;DHT22;3619;53.784;10.440;2023-07-08T13:46:49;27.90;1.00
7155;DHT22;3619;53.784;10.440;2023-07-08T13:49:20;27.70;1.00
7155;DHT22;3619;53.784;10.440;2023-07-08T13:51:51;27.50;12.60
7155;DHT22;3619;53.784;10.440;2023-07-08T13:54:21;27.30;17.40
7155;DHT22;3619;53.784;10.440;2023-07-08T13:56:50;27.30;83.50
7155;DHT22;3619;53.784;10.440;2023-07-08T13:59:21;27.30;91.60
7155;DHT22;3619;53.784;10.440;2023-07-08T14:01:51;27.20;86.70
7155;DHT22;3619;53.784;10.440;2023-07-08T14:04:21;27.10;94.00
7155;DHT22;3619;53.784;10.440;2023-07-08T14:06:48;27.10;84.90
7155;DHT22;3619;53.784;10.440;2023-07-08T14:09:16;27.00;93.60
7155;DHT22;3619;53.784;10.440;2023-07-08T14:11:44;27.00;99.90
7155;DHT22;3619;53.784;10.440;2023-07-08T14:14:12;27.00;99.90
7155;DHT22;3619;53.784;10.440;2023-07-08T14:16:41;26.90;99.90
7155;DHT22;3619;53.784;10.440;2023-07-08T14:19:14;26.60;99.90
7155;DHT22;3619;53.784;10.440;2023-07-08T14:21:42;26.40;99.90
7155;DHT22;3619;53.784;10.440;2023-07-08T14:24:11;26.30;99.90
7155;DHT22;3619;53.784;10.440;2023-07-08T14:26:40;26.30;99.90
7155;DHT22;3619;53.784;10.440;2023-07-08T14:29:35;26.30;99.90
7155;DHT22;3619;53.784;10.440;2023-07-08T14:32:04;26.40;99.90
7155;DHT22;3619;53.784;10.440;2023-07-08T14:34:34;26.40;99.90
7155;DHT22;3619;53.784;10.440;2023-07-08T14:37:02;26.40;99.90
7155;DHT22;3619;53.784;10.440;2023-07-08T14:39:29;26.40;93.00
7155;DHT22;3619;53.784;10.440;2023-07-08T14:41:56;26.40;99.90
7155;DHT22;3619;53.784;10.440;2023-07-08T14:44:25;26.30;96.20
7155;DHT22;3619;53.784;10.440;2023-07-08T14:46:53;26.30;98.70
7155;DHT22;3619;53.784;10.440;2023-07-08T14:49:22;26.40;94.10
7155;DHT22;3619;53.784;10.440;2023-07-08T14:51:51;26.40;91.10
7155;DHT22;3619;53.784;10.440;2023-07-08T14:54:18;26.30;73.40
7155;DHT22;3619;53.784;10.440;2023-07-08T14:56:46;26.20;82.00
7155;DHT22;3619;53.784;10.440;2023-07-08T14:59:15;26.30;84.80
7155;DHT22;3619;53.784;10.440;2023-07-08T15:01:44;26.30;71.00
7155;DHT22;3619;53.784;10.440;2023-07-08T15:04:12;26.30;56.00
7155;DHT22;3619;53.784;10.440;2023-07-08T15:06:41;26.20;43.00
7155;DHT22;3619;53.784;10.440;2023-07-08T15:09:09;26.00;56.50
7155;DHT22;3619;53.784;10.440;2023-07-08T15:11:37;26.00;62.70
7155;DHT22;3619;53.784;10.440;2023-07-08T15:14:06;26.10;77.30
7155;DHT22;3619;53.784;10.440;2023-07-08T15:16:37;26.20;86.60
7155;DHT22;3619;53.784;10.440;2023-07-08T15:19:08;26.30;56.50
7155;DHT22;3619;53.784;10.440;2023-07-08T15:21:36;26.00;32.80
7155;DHT22;3619;53.784;10.440;2023-07-08T15:24:03;26.10;81.90
7155;DHT22;3619;53.784;10.440;2023-07-08T15:26:31;26.10;86.20
7155;DHT22;3619;53.784;10.440;2023-07-08T15:28:57;25.80;76.70
7155;DHT22;3619;53.784;10.440;2023-07-08T15:31:28;25.60;75.90
7155;DHT22;3619;53.784;10.440;2023-07-08T15:33:59;25.50;87.20
7155;DHT22;3619;53.784;10.440;2023-07-08T15:36:26;25.50;93.80
7155;DHT22;3619;53.784;10.440;2023-07-08T15:38:53;25.60;97.30
7155;DHT22;3619;53.784;10.440;2023-07-08T15:44:13;25.80;70.30
7155;DHT22;3619;53.784;10.440;2023-07-08T15:46:42;25.90;63.70
7155;DHT22;3619;53.784;10.440;2023-07-08T15:49:13;25.80;16.10
7155;DHT22;3619;53.784;10.440;2023-07-08T15:51:41;25.50;1.00
7155;DHT22;3619;53.784;10.440;2023-07-08T15:54:07;25.40;16.90
7155;DHT22;3619;53.784;10.440;2023-07-08T15:56:34;25.30;1.00
7155;DHT22;3619;53.784;10.440;2023-07-08T15:59:01;25.40;1.00
7155;DHT22;3619;53.784;10.440;2023-07-08T16:01:30;25.40;1.00
7155;DHT22;3619;53.784;10.440;2023-07-08T16:03:57;25.50;20.70
7155;DHT22;3619;53.784;10.440;2023-07-08T16:06:25;25.40;1.00
7155;DHT22;3619;53.784;10.440;2023-07-08T16:08:52;25.50;1.00
7155;DHT22;3619;53.784;10.440;2023-07-08T16:11:23;25.50;1.00
7155;DHT22;3619;53.784;10.440;2023-07-08T16:13:52;25.40;1.00